sensor_id;sensor_type;location;lat;lon;timestamp;P1;durP1;ratioP1;P2;durP2;ratioP2
36241;SDS011;22283;42.748;12.732;2023-12-20T00:01:43;12.03;;;6.60;;
36241;SDS011;22283;42.748;12.732;2023-12-20T00:06:44;14.67;;;6.37;;
36241;SDS011;22283;42.748;12.732;2023-12-20T00:11:44;11.83;;;6.80;;
36241;SDS011;22283;42.748;12.732;2023-12-20T00:16:46;13.02;;;6.43;;
36241;SDS011;22283;42.748;12.732;2023-12-20T00:21:47;13.93;;;7.00;;
36241;SDS011;22283;42.748;12.732;2023-12-20T00:26:48;13.37;;;5.27;;
36241;SDS011;22283;42.748;12.732;2023-12-20T00:31:48;8.13;;;4.57;;
36241;SDS011;22283;42.748;12.732;2023-12-20T00:36:49;12.23;;;4.60;;
36241;SDS011;22283;42.748;12.732;2023-12-20T00:41:49;9.47;;;4.53;;
36241;SDS011;22283;42.748;12.732;2023-12-20T00:46:50;8.47;;;4.20;;
36241;SDS011;22283;42.748;12.732;2023-12-20T00:51:51;7.95;;;4.13;;
36241;SDS011;22283;42.748;12.732;2023-12-20T00:56:53;7.18;;;3.28;;
36241;SDS011;22283;42.748;12.732;2023-12-20T01:01:53;11.57;;;4.03;;
36241;SDS011;22283;42.748;12.732;2023-12-20T01:06:54;6.50;;;3.50;;
36241;SDS011;22283;42.748;12.732;2023-12-20T01:11:54;9.73;;;4.57;;
36241;SDS011;22283;42.748;12.732;2023-12-20T01:16:55;10.10;;;5.10;;
36241;SDS011;22283;42.748;12.732;2023-12-20T01:21:56;12.27;;;6.67;;
36241;SDS011;22283;42.748;12.732;2023-12-20T01:26:57;8.83;;;4.73;;
36241;SDS011;22283;42.748;12.732;2023-12-20T01:31:58;10.55;;;5.63;;
36241;SDS011;22283;42.748;12.732;2023-12-20T01:36:58;11.97;;;5.30;;
36241;SDS011;22283;42.748;12.732;2023-12-20T01:42:00;15.32;;;6.43;;
36241;SDS011;22283;42.748;12.732;2023-12-20T01:47:01;10.90;;;6.00;;
36241;SDS011;22283;42.748;12.732;2023-12-20T01:52:02;13.30;;;5.87;;
36241;SDS011;22283;42.748;12.732;2023-12-20T01:57:03;10.32;;;5.45;;
36241;SDS011;22283;42.748;12.732;2023-12-20T02:02:04;9.77;;;4.57;;
36241;SDS011;22283;42.748;12.732;2023-12-20T02:07:04;11.80;;;5.10;;
36241;SDS011;22283;42.748;12.732;2023-12-20T02:12:05;14.90;;;6.13;;
36241;SDS011;22283;42.748;12.732;2023-12-20T02:17:06;15.70;;;6.13;;
36241;SDS011;22283;42.748;12.732;2023-12-20T02:22:10;15.97;;;7.00;;
36241;SDS011;22283;42.748;12.732;2023-12-20T02:27:13;8.40;;;4.97;;
36241;SDS011;22283;42.748;12.732;2023-12-20T02:32:18;17.48;;;7.85;;
36241;SDS011;22283;42.748;12.732;2023-12-20T02:37:19;21.67;;;9.93;;
36241;SDS011;22283;42.748;12.732;2023-12-20T02:42:19;10.30;;;3.80;;
36241;SDS011;22283;42.748;12.732;2023-12-20T02:47:20;8.70;;;4.27;;
36241;SDS011;22283;42.748;12.732;2023-12-20T02:52:21;12.80;;;5.87;;
36241;SDS011;22283;42.748;12.732;2023-12-20T02:57:23;10.50;;;4.13;;
36241;SDS011;22283;42.748;12.732;2023-12-20T03:02:24;8.17;;;4.10;;
36241;SDS011;22283;42.748;12.732;2023-12-20T03:07:24;8.93;;;4.80;;
36241;SDS011;22283;42.748;12.732;2023-12-20T03:12:25;10.00;;;3.40;;
36241;SDS011;22283;42.748;12.732;2023-12-20T03:17:25;10.20;;;4.27;;
36241;SDS011;22283;42.748;12.732;2023-12-20T03:22:26;8.67;;;4.47;;
36241;SDS011;22283;42.748;12.732;2023-12-20T03:27:27;12.80;;;4.70;;
36241;SDS011;22283;42.748;12.732;2023-12-20T03:32:27;8.97;;;4.63;;
36241;SDS011;22283;42.748;12.732;2023-12-20T03:37:28;9.97;;;4.13;;
36241;SDS011;22283;42.748;12.732;2023-12-20T03:42:28;13.37;;;5.03;;
36241;SDS011;22283;42.748;12.732;2023-12-20T03:47:29;10.83;;;4.80;;
36241;SDS011;22283;42.748;12.732;2023-12-20T03:52:30;7.33;;;4.23;;
36241;SDS011;22283;42.748;12.732;2023-12-20T03:57:30;9.37;;;4.30;;
36241;SDS011;22283;42.748;12.732;2023-12-20T04:02:31;8.57;;;4.17;;
36241;SDS011;22283;42.748;12.732;2023-12-20T04:07:32;7.03;;;4.13;;
36241;SDS011;22283;42.748;12.732;2023-12-20T04:12:32;8.37;;;4.70;;
36241;SDS011;22283;42.748;12.732;2023-12-20T04:17:33;7.80;;;4.10;;
36241;SDS011;22283;42.748;12.732;2023-12-20T04:22:34;13.47;;;3.43;;
36241;SDS011;22283;42.748;12.732;2023-12-20T04:27:35;8.97;;;4.03;;
36241;SDS011;22283;42.748;12.732;2023-12-20T04:32:36;7.43;;;4.27;;
36241;SDS011;22283;42.748;12.732;2023-12-20T04:37:36;12.07;;;4.73;;
36241;SDS011;22283;42.748;12.732;2023-12-20T04:42:37;7.60;;;4.30;;
36241;SDS011;22283;42.748;12.732;2023-12-20T04:47:38;7.83;;;4.00;;
36241;SDS011;22283;42.748;12.732;2023-12-20T04:52:38;5.77;;;3.30;;
36241;SDS011;22283;42.748;12.732;2023-12-20T04:57:39;5.63;;;3.40;;
36241;SDS011;22283;42.748;12.732;2023-12-20T05:02:40;8.07;;;3.80;;
36241;SDS011;22283;42.748;12.732;2023-12-20T05:07:40;6.40;;;3.27;;
36241;SDS011;22283;42.748;12.732;2023-12-20T05:12:41;7.00;;;3.87;;
36241;SDS011;22283;42.748;12.732;2023-12-20T05:17:42;15.67;;;4.13;;
36241;SDS011;22283;42.748;12.732;2023-12-20T05:22:43;7.97;;;4.07;;
36241;SDS011;22283;42.748;12.732;2023-12-20T05:27:45;8.50;;;4.30;;
36241;SDS011;22283;42.748;12.732;2023-12-20T05:32:45;14.60;;;4.30;;
36241;SDS011;22283;42.748;12.732;2023-12-20T05:37:46;10.03;;;4.97;;
36241;SDS011;22283;42.748;12.732;2023-12-20T05:42:47;9.77;;;4.80;;
36241;SDS011;22283;42.748;12.732;2023-12-20T05:47:48;11.13;;;5.63;;
36241;SDS011;22283;42.748;12.732;2023-12-20T05:52:49;21.10;;;8.17;;
36241;SDS011;22283;42.748;12.732;2023-12-20T05:57:50;16.73;;;7.35;;
36241;SDS011;22283;42.748;12.732;2023-12-20T06:02:51;16.53;;;7.37;;
36241;SDS011;22283;42.748;12.732;2023-12-20T06:07:51;23.20;;;8.40;;
36241;SDS011;22283;42.748;12.732;2023-12-20T06:12:52;17.57;;;8.87;;
36241;SDS011;22283;42.748;12.732;2023-12-20T06:17:53;21.67;;;7.93;;
36241;SDS011;22283;42.748;12.732;2023-12-20T06:22:53;23.43;;;9.10;;
36241;SDS011;22283;42.748;12.732;2023-12-20T06:27:54;21.43;;;8.93;;
36241;SDS011;22283;42.748;12.732;2023-12-20T06:32:54;15.47;;;7.33;;
36241;SDS011;22283;42.748;12.732;2023-12-20T06:37:57;23.00;;;8.55;;
36241;SDS011;22283;42.748;12.732;2023-12-20T06:42:58;51.17;;;25.40;;
36241;SDS011;22283;42.748;12.732;2023-12-20T06:48:00;24.95;;;12.38;;
36241;SDS011;22283;42.748;12.732;2023-12-20T06:53:00;18.97;;;9.97;;
36241;SDS011;22283;42.748;12.732;2023-12-20T06:58:07;17.88;;;8.90;;
36241;SDS011;22283;42.748;12.732;2023-12-20T07:03:08;19.83;;;10.97;;
36241;SDS011;22283;42.748;12.732;2023-12-20T07:08:09;23.50;;;9.93;;
36241;SDS011;22283;42.748;12.732;2023-12-20T07:13:11;27.25;;;9.85;;
36241;SDS011;22283;42.748;12.732;2023-12-20T07:18:12;33.58;;;11.60;;
36241;SDS011;22283;42.748;12.732;2023-12-20T07:23:13;25.80;;;11.20;;
36241;SDS011;22283;42.748;12.732;2023-12-20T07:28:14;37.90;;;17.23;;
36241;SDS011;22283;42.748;12.732;2023-12-20T07:33:14;28.87;;;11.70;;
36241;SDS011;22283;42.748;12.732;2023-12-20T07:38:16;23.13;;;10.73;;
36241;SDS011;22283;42.748;12.732;2023-12-20T07:43:16;40.73;;;12.37;;
36241;SDS011;22283;42.748;12.732;2023-12-20T07:48:17;27.20;;;12.67;;
36241;SDS011;22283;42.748;12.732;2023-12-20T07:53:18;32.03;;;14.87;;
36241;SDS011;22283;42.748;12.732;2023-12-20T07:58:18;39.40;;;15.77;;
36241;SDS011;22283;42.748;12.732;2023-12-20T08:03:19;27.27;;;13.53;;
36241;SDS011;22283;42.748;12.732;2023-12-20T08:08:20;37.77;;;16.93;;
36241;SDS011;22283;42.748;12.732;2023-12-20T08:13:20;30.07;;;15.13;;
36241;SDS011;22283;42.748;12.732;2023-12-20T08:18:26;29.95;;;15.57;;
36241;SDS011;22283;42.748;12.732;2023-12-20T08:23:27;34.17;;;16.63;;
36241;SDS011;22283;42.748;12.732;2023-12-20T08:28:27;28.73;;;16.17;;
36241;SDS011;22283;42.748;12.732;2023-12-20T08:33:28;34.27;;;16.07;;
36241;SDS011;22283;42.748;12.732;2023-12-20T08:38:29;29.27;;;15.17;;
36241;SDS011;22283;42.748;12.732;2023-12-20T08:43:29;36.30;;;15.83;;
36241;SDS011;22283;42.748;12.732;2023-12-20T08:48:30;30.67;;;15.50;;
36241;SDS011;22283;42.748;12.732;2023-12-20T08:53:31;27.33;;;15.53;;
36241;SDS011;22283;42.748;12.732;2023-12-20T08:58:31;27.33;;;14.13;;
36241;SDS011;22283;42.748;12.732;2023-12-20T09:03:33;29.27;;;13.07;;
36241;SDS011;22283;42.748;12.732;2023-12-20T09:08:34;29.97;;;14.90;;
36241;SDS011;22283;42.748;12.732;2023-12-20T09:13:35;31.00;;;14.03;;
36241;SDS011;22283;42.748;12.732;2023-12-20T09:18:35;34.80;;;16.83;;
36241;SDS011;22283;42.748;12.732;2023-12-20T09:23:36;27.43;;;14.70;;
36241;SDS011;22283;42.748;12.732;2023-12-20T09:28:37;21.80;;;14.87;;
36241;SDS011;22283;42.748;12.732;2023-12-20T09:38:39;27.67;;;14.55;;
36241;SDS011;22283;42.748;12.732;2023-12-20T09:43:41;33.63;;;18.03;;
36241;SDS011;22283;42.748;12.732;2023-12-20T09:48:43;32.75;;;19.08;;
36241;SDS011;22283;42.748;12.732;2023-12-20T09:53:45;32.85;;;18.83;;
36241;SDS011;22283;42.748;12.732;2023-12-20T09:58:47;36.80;;;23.33;;
36241;SDS011;22283;42.748;12.732;2023-12-20T10:03:48;36.87;;;22.70;;
36241;SDS011;22283;42.748;12.732;2023-12-20T10:08:54;40.95;;;24.80;;
36241;SDS011;22283;42.748;12.732;2023-12-20T10:14:01;50.13;;;30.33;;
36241;SDS011;22283;42.748;12.732;2023-12-20T10:19:02;45.28;;;26.38;;
36241;SDS011;22283;42.748;12.732;2023-12-20T10:24:03;33.13;;;22.23;;
36241;SDS011;22283;42.748;12.732;2023-12-20T10:29:04;36.17;;;22.40;;
36241;SDS011;22283;42.748;12.732;2023-12-20T10:34:05;37.78;;;24.50;;
36241;SDS011;22283;42.748;12.732;2023-12-20T10:39:06;41.50;;;24.23;;
36241;SDS011;22283;42.748;12.732;2023-12-20T10:44:10;40.15;;;24.90;;
36241;SDS011;22283;42.748;12.732;2023-12-20T10:49:11;37.85;;;23.73;;
36241;SDS011;22283;42.748;12.732;2023-12-20T10:54:12;43.58;;;27.83;;
36241;SDS011;22283;42.748;12.732;2023-12-20T10:59:13;41.80;;;27.87;;
36241;SDS011;22283;42.748;12.732;2023-12-20T11:04:18;35.58;;;26.80;;
36241;SDS011;22283;42.748;12.732;2023-12-20T11:09:25;45.22;;;28.67;;
36241;SDS011;22283;42.748;12.732;2023-12-20T11:25:05;31.98;;;21.92;;
36241;SDS011;22283;42.748;12.732;2023-12-20T11:30:11;36.15;;;21.35;;
36241;SDS011;22283;42.748;12.732;2023-12-20T11:40:15;38.33;;;23.03;;
36241;SDS011;22283;42.748;12.732;2023-12-20T11:45:18;34.47;;;25.42;;
36241;SDS011;22283;42.748;12.732;2023-12-20T11:50:22;36.83;;;22.23;;
36241;SDS011;22283;42.748;12.732;2023-12-20T11:55:24;33.53;;;23.05;;
36241;SDS011;22283;42.748;12.732;2023-12-20T12:00:25;33.77;;;21.13;;
36241;SDS011;22283;42.748;12.732;2023-12-20T12:05:25;29.43;;;22.60;;
36241;SDS011;22283;42.748;12.732;2023-12-20T12:10:26;36.50;;;26.30;;
36241;SDS011;22283;42.748;12.732;2023-12-20T12:15:27;31.03;;;24.40;;
36241;SDS011;22283;42.748;12.732;2023-12-20T12:20:27;20.20;;;15.47;;
36241;SDS011;22283;42.748;12.732;2023-12-20T12:25:28;22.90;;;15.07;;
36241;SDS011;22283;42.748;12.732;2023-12-20T12:30:31;20.38;;;14.00;;
36241;SDS011;22283;42.748;12.732;2023-12-20T12:35:31;17.70;;;12.47;;
36241;SDS011;22283;42.748;12.732;2023-12-20T12:40:34;15.50;;;11.67;;
36241;SDS011;22283;42.748;12.732;2023-12-20T12:45:36;24.00;;;12.70;;
36241;SDS011;22283;42.748;12.732;2023-12-20T12:50:37;22.73;;;12.00;;
36241;SDS011;22283;42.748;12.732;2023-12-20T12:55:37;20.43;;;12.57;;
36241;SDS011;22283;42.748;12.732;2023-12-20T13:00:38;25.97;;;13.47;;
36241;SDS011;22283;42.748;12.732;2023-12-20T13:05:39;17.90;;;12.63;;
36241;SDS011;22283;42.748;12.732;2023-12-20T13:10:39;17.67;;;12.27;;
36241;SDS011;22283;42.748;12.732;2023-12-20T13:15:41;19.85;;;12.55;;
36241;SDS011;22283;42.748;12.732;2023-12-20T13:20:41;20.30;;;12.10;;
36241;SDS011;22283;42.748;12.732;2023-12-20T13:25:42;15.52;;;11.80;;
36241;SDS011;22283;42.748;12.732;2023-12-20T13:30:43;19.70;;;11.43;;
36241;SDS011;22283;42.748;12.732;2023-12-20T13:35:44;24.43;;;13.63;;
36241;SDS011;22283;42.748;12.732;2023-12-20T13:40:45;26.53;;;14.97;;
36241;SDS011;22283;42.748;12.732;2023-12-20T13:45:45;20.80;;;12.87;;
36241;SDS011;22283;42.748;12.732;2023-12-20T13:50:47;19.95;;;12.55;;
36241;SDS011;22283;42.748;12.732;2023-12-20T13:55:48;19.70;;;12.27;;
36241;SDS011;22283;42.748;12.732;2023-12-20T14:00:48;31.80;;;14.80;;
36241;SDS011;22283;42.748;12.732;2023-12-20T14:05:49;44.70;;;17.20;;
36241;SDS011;22283;42.748;12.732;2023-12-20T14:10:49;25.43;;;17.37;;
36241;SDS011;22283;42.748;12.732;2023-12-20T14:15:50;24.80;;;15.80;;
36241;SDS011;22283;42.748;12.732;2023-12-20T14:20:51;26.37;;;15.40;;
36241;SDS011;22283;42.748;12.732;2023-12-20T14:25:51;15.60;;;11.47;;
36241;SDS011;22283;42.748;12.732;2023-12-20T14:30:53;17.08;;;10.88;;
36241;SDS011;22283;42.748;12.732;2023-12-20T14:35:53;22.30;;;13.07;;
36241;SDS011;22283;42.748;12.732;2023-12-20T14:40:54;22.67;;;12.73;;
36241;SDS011;22283;42.748;12.732;2023-12-20T14:45:54;26.30;;;17.03;;
36241;SDS011;22283;42.748;12.732;2023-12-20T14:50:55;30.57;;;20.67;;
36241;SDS011;22283;42.748;12.732;2023-12-20T14:55:56;35.20;;;21.60;;
36241;SDS011;22283;42.748;12.732;2023-12-20T15:00:56;52.23;;;33.00;;
36241;SDS011;22283;42.748;12.732;2023-12-20T15:05:57;61.30;;;30.60;;
36241;SDS011;22283;42.748;12.732;2023-12-20T15:10:58;48.42;;;28.80;;
36241;SDS011;22283;42.748;12.732;2023-12-20T15:15:59;39.70;;;25.17;;
36241;SDS011;22283;42.748;12.732;2023-12-20T15:21:00;46.93;;;25.03;;
36241;SDS011;22283;42.748;12.732;2023-12-20T15:26:01;41.73;;;26.33;;
36241;SDS011;22283;42.748;12.732;2023-12-20T15:31:01;47.50;;;26.33;;
36241;SDS011;22283;42.748;12.732;2023-12-20T15:36:06;45.90;;;27.90;;
36241;SDS011;22283;42.748;12.732;2023-12-20T15:41:07;56.75;;;28.98;;
36241;SDS011;22283;42.748;12.732;2023-12-20T15:46:09;37.78;;;23.23;;
36241;SDS011;22283;42.748;12.732;2023-12-20T15:56:20;31.08;;;19.27;;
36241;SDS011;22283;42.748;12.732;2023-12-20T16:01:21;39.57;;;21.17;;
36241;SDS011;22283;42.748;12.732;2023-12-20T16:06:22;42.73;;;24.17;;
36241;SDS011;22283;42.748;12.732;2023-12-20T16:11:22;46.13;;;21.30;;
36241;SDS011;22283;42.748;12.732;2023-12-20T16:16:23;53.53;;;32.70;;
36241;SDS011;22283;42.748;12.732;2023-12-20T16:21:24;46.90;;;28.03;;
36241;SDS011;22283;42.748;12.732;2023-12-20T16:26:24;36.83;;;20.33;;
36241;SDS011;22283;42.748;12.732;2023-12-20T16:31:25;27.63;;;16.07;;
36241;SDS011;22283;42.748;12.732;2023-12-20T16:36:27;36.07;;;18.00;;
36241;SDS011;22283;42.748;12.732;2023-12-20T16:41:54;34.30;;;17.10;;
36241;SDS011;22283;42.748;12.732;2023-12-20T16:46:55;34.30;;;15.80;;
36241;SDS011;22283;42.748;12.732;2023-12-20T16:51:55;29.83;;;15.83;;
36241;SDS011;22283;42.748;12.732;2023-12-20T16:56:57;33.17;;;14.90;;
36241;SDS011;22283;42.748;12.732;2023-12-20T17:01:57;28.98;;;16.48;;
36241;SDS011;22283;42.748;12.732;2023-12-20T17:06:58;33.73;;;15.87;;
36241;SDS011;22283;42.748;12.732;2023-12-20T17:11:59;35.50;;;19.17;;
36241;SDS011;22283;42.748;12.732;2023-12-20T17:16:59;36.60;;;21.87;;
36241;SDS011;22283;42.748;12.732;2023-12-20T17:22:00;32.07;;;19.30;;
36241;SDS011;22283;42.748;12.732;2023-12-20T17:27:03;34.88;;;18.80;;
36241;SDS011;22283;42.748;12.732;2023-12-20T17:32:05;44.85;;;21.52;;
36241;SDS011;22283;42.748;12.732;2023-12-20T17:37:05;39.47;;;19.30;;
36241;SDS011;22283;42.748;12.732;2023-12-20T17:42:06;37.90;;;19.37;;
36241;SDS011;22283;42.748;12.732;2023-12-20T17:47:07;35.17;;;22.50;;
36241;SDS011;22283;42.748;12.732;2023-12-20T17:52:07;57.77;;;31.47;;
36241;SDS011;22283;42.748;12.732;2023-12-20T17:57:08;63.30;;;40.88;;
36241;SDS011;22283;42.748;12.732;2023-12-20T18:02:09;48.13;;;31.80;;
36241;SDS011;22283;42.748;12.732;2023-12-20T18:07:10;43.70;;;28.63;;
36241;SDS011;22283;42.748;12.732;2023-12-20T18:17:12;44.08;;;28.15;;
36241;SDS011;22283;42.748;12.732;2023-12-20T18:22:13;59.33;;;21.67;;
36241;SDS011;22283;42.748;12.732;2023-12-20T18:27:14;41.30;;;25.63;;
36241;SDS011;22283;42.748;12.732;2023-12-20T18:32:16;39.17;;;22.08;;
36241;SDS011;22283;42.748;12.732;2023-12-20T18:37:16;34.33;;;19.40;;
36241;SDS011;22283;42.748;12.732;2023-12-20T18:42:17;41.33;;;19.77;;
36241;SDS011;22283;42.748;12.732;2023-12-20T18:47:17;34.97;;;21.20;;
36241;SDS011;22283;42.748;12.732;2023-12-20T18:52:18;36.03;;;21.33;;
36241;SDS011;22283;42.748;12.732;2023-12-20T18:57:19;33.43;;;21.27;;
36241;SDS011;22283;42.748;12.732;2023-12-20T19:02:19;32.87;;;20.13;;
36241;SDS011;22283;42.748;12.732;2023-12-20T19:07:20;41.47;;;23.97;;
36241;SDS011;22283;42.748;12.732;2023-12-20T19:12:21;44.60;;;24.83;;
36241;SDS011;22283;42.748;12.732;2023-12-20T19:17:21;50.97;;;32.30;;
36241;SDS011;22283;42.748;12.732;2023-12-20T19:22:22;45.73;;;28.23;;
36241;SDS011;22283;42.748;12.732;2023-12-20T19:32:24;40.70;;;26.27;;
36241;SDS011;22283;42.748;12.732;2023-12-20T19:37:25;36.63;;;23.37;;
36241;SDS011;22283;42.748;12.732;2023-12-20T19:42:25;36.03;;;21.97;;
36241;SDS011;22283;42.748;12.732;2023-12-20T19:47:26;39.03;;;22.13;;
36241;SDS011;22283;42.748;12.732;2023-12-20T19:52:26;33.00;;;21.53;;
36241;SDS011;22283;42.748;12.732;2023-12-20T20:02:29;30.70;;;18.67;;
36241;SDS011;22283;42.748;12.732;2023-12-20T20:07:30;33.47;;;21.98;;
36241;SDS011;22283;42.748;12.732;2023-12-20T20:12:30;33.30;;;20.50;;
36241;SDS011;22283;42.748;12.732;2023-12-20T20:17:33;41.17;;;22.25;;
36241;SDS011;22283;42.748;12.732;2023-12-20T20:22:33;31.97;;;20.63;;
36241;SDS011;22283;42.748;12.732;2023-12-20T20:32:36;45.15;;;29.55;;
36241;SDS011;22283;42.748;12.732;2023-12-20T20:37:36;45.57;;;29.67;;
36241;SDS011;22283;42.748;12.732;2023-12-20T20:42:39;41.45;;;25.42;;
36241;SDS011;22283;42.748;12.732;2023-12-20T20:47:39;37.43;;;23.13;;
36241;SDS011;22283;42.748;12.732;2023-12-20T20:57:46;34.28;;;20.83;;
36241;SDS011;22283;42.748;12.732;2023-12-20T21:02:50;29.17;;;20.13;;
36241;SDS011;22283;42.748;12.732;2023-12-20T21:07:50;29.37;;;19.97;;
36241;SDS011;22283;42.748;12.732;2023-12-20T21:12:51;34.97;;;20.13;;
36241;SDS011;22283;42.748;12.732;2023-12-20T21:17:52;29.63;;;18.87;;
36241;SDS011;22283;42.748;12.732;2023-12-20T21:22:52;90.77;;;50.00;;
36241;SDS011;22283;42.748;12.732;2023-12-20T21:27:53;61.00;;;38.30;;
36241;SDS011;22283;42.748;12.732;2023-12-20T21:32:54;45.13;;;32.57;;
36241;SDS011;22283;42.748;12.732;2023-12-20T21:37:54;76.07;;;48.90;;
36241;SDS011;22283;42.748;12.732;2023-12-20T21:42:55;72.73;;;46.50;;
36241;SDS011;22283;42.748;12.732;2023-12-20T21:47:56;43.53;;;29.63;;
36241;SDS011;22283;42.748;12.732;2023-12-20T21:52:57;34.07;;;25.23;;
36241;SDS011;22283;42.748;12.732;2023-12-20T21:57:58;33.55;;;22.77;;
36241;SDS011;22283;42.748;12.732;2023-12-20T22:02:58;31.03;;;18.87;;
36241;SDS011;22283;42.748;12.732;2023-12-20T22:07:59;27.10;;;18.27;;
36241;SDS011;22283;42.748;12.732;2023-12-20T22:13:00;28.90;;;18.67;;
36241;SDS011;22283;42.748;12.732;2023-12-20T22:18:00;27.90;;;18.70;;
36241;SDS011;22283;42.748;12.732;2023-12-20T22:23:01;28.67;;;19.07;;
36241;SDS011;22283;42.748;12.732;2023-12-20T22:28:03;42.80;;;27.92;;
36241;SDS011;22283;42.748;12.732;2023-12-20T22:33:04;33.30;;;24.87;;
36241;SDS011;22283;42.748;12.732;2023-12-20T22:38:05;41.20;;;24.87;;
36241;SDS011;22283;42.748;12.732;2023-12-20T22:43:05;42.60;;;26.97;;
36241;SDS011;22283;42.748;12.732;2023-12-20T22:48:06;42.00;;;28.07;;
36241;SDS011;22283;42.748;12.732;2023-12-20T22:53:07;34.10;;;21.97;;
36241;SDS011;22283;42.748;12.732;2023-12-20T22:58:07;37.13;;;23.97;;
36241;SDS011;22283;42.748;12.732;2023-12-20T23:03:08;33.73;;;23.20;;
36241;SDS011;22283;42.748;12.732;2023-12-20T23:08:09;28.43;;;19.00;;
36241;SDS011;22283;42.748;12.732;2023-12-20T23:13:11;32.60;;;20.65;;
36241;SDS011;22283;42.748;12.732;2023-12-20T23:18:12;29.30;;;20.13;;
36241;SDS011;22283;42.748;12.732;2023-12-20T23:23:12;32.57;;;20.23;;
36241;SDS011;22283;42.748;12.732;2023-12-20T23:28:13;30.07;;;22.07;;
36241;SDS011;22283;42.748;12.732;2023-12-20T23:33:14;35.40;;;23.03;;
36241;SDS011;22283;42.748;12.732;2023-12-20T23:38:15;32.03;;;22.13;;
36241;SDS011;22283;42.748;12.732;2023-12-20T23:43:16;38.87;;;24.03;;
36241;SDS011;22283;42.748;12.732;2023-12-20T23:48:16;38.50;;;23.70;;
36241;SDS011;22283;42.748;12.732;2023-12-20T23:53:17;40.00;;;23.47;;
36241;SDS011;22283;42.748;12.732;2023-12-20T23:58:18;40.17;;;23.33;;
